createdAt,value
2022-10-09T00:00:15.569Z,77.90
2022-10-09T00:02:43.263Z,78.16
2022-10-09T00:05:11.062Z,77.99
2022-10-09T00:07:38.749Z,77.93
2022-10-09T00:10:07.007Z,78.72
2022-10-09T00:12:34.684Z,78.76
2022-10-09T00:15:10.578Z,78.48
2022-10-09T00:17:40.293Z,78.62
2022-10-09T00:20:08.830Z,79.42
2022-10-09T00:22:36.543Z,79.48
2022-10-09T00:25:04.780Z,78.63
2022-10-09T00:27:32.435Z,79.30
2022-10-09T00:30:01.672Z,79.30
2022-10-09T00:32:31.913Z,79.23
2022-10-09T00:35:00.936Z,78.91
2022-10-09T00:37:29.721Z,78.95
2022-10-09T00:39:57.376Z,79.63
2022-10-09T00:42:26.249Z,80.78
2022-10-09T00:44:57.639Z,80.02
2022-10-09T00:47:29.687Z,79.54
2022-10-09T00:50:02.986Z,79.99
2022-10-09T00:52:31.172Z,79.92
2022-10-09T00:54:59.510Z,79.25
2022-10-09T00:57:27.209Z,79.25
2022-10-09T00:59:54.928Z,79.12
2022-10-09T01:02:22.749Z,79.07
2022-10-09T01:04:50.497Z,79.84
2022-10-09T01:07:36.693Z,79.50
2022-10-09T01:10:16.932Z,79.42
2022-10-09T01:12:48.504Z,79.15
2022-10-09T01:15:19.315Z,79.23
2022-10-09T01:17:52.737Z,79.32
2022-10-09T01:20:30.531Z,79.75
2022-10-09T01:23:19.537Z,79.73
2022-10-09T01:25:58.044Z,79.61
2022-10-09T01:28:29.402Z,79.05
2022-10-09T01:30:59.294Z,78.87
2022-10-09T01:33:27.476Z,78.72
2022-10-09T01:35:55.208Z,79.03
2022-10-09T01:38:24.616Z,78.97
2022-10-09T01:40:53.895Z,79.17
2022-10-09T01:43:21.621Z,78.94
2022-10-09T01:45:50.688Z,79.15
2022-10-09T01:48:23.417Z,79.20
2022-10-09T01:50:54.575Z,79.01
2022-10-09T01:53:24.198Z,78.91
2022-10-09T01:55:57.153Z,79.00
2022-10-09T01:58:29.620Z,78.91
2022-10-09T02:01:02.505Z,79.15
2022-10-09T02:03:31.443Z,79.01
2022-10-09T02:06:03.003Z,78.72
2022-10-09T02:08:31.721Z,78.79
2022-10-09T02:11:02.550Z,78.60
2022-10-09T02:13:30.747Z,78.77
2022-10-09T02:16:05.688Z,78.57
2022-10-09T02:18:39.277Z,78.57
2022-10-09T02:21:12.303Z,78.88
2022-10-09T02:23:41.180Z,78.76
2022-10-09T02:26:09.486Z,78.81
2022-10-09T02:28:37.367Z,79.01
2022-10-09T02:31:10.174Z,78.87
2022-10-09T02:33:38.015Z,78.86
2022-10-09T02:36:05.864Z,78.86
2022-10-09T02:38:33.517Z,78.77
2022-10-09T02:41:03.880Z,78.72
2022-10-09T02:43:31.527Z,78.94
2022-10-09T02:45:59.219Z,78.79
2022-10-09T02:48:28.265Z,78.78
2022-10-09T02:50:55.948Z,78.65
2022-10-09T02:53:23.751Z,78.56
2022-10-09T02:55:51.418Z,78.47
2022-10-09T02:58:19.370Z,78.52
2022-10-09T03:00:49.354Z,78.39
2022-10-09T03:03:17.194Z,78.28
2022-10-09T03:05:46.253Z,78.24
2022-10-09T03:08:14.065Z,77.79
2022-10-09T03:10:42.053Z,77.72
2022-10-09T03:13:10.296Z,77.69
2022-10-09T03:15:38.519Z,78.17
2022-10-09T03:18:06.326Z,78.24
2022-10-09T03:20:34.018Z,77.92
2022-10-09T03:23:03.180Z,77.79
2022-10-09T03:25:30.901Z,77.79
2022-10-09T03:27:58.610Z,77.96
2022-10-09T03:30:26.569Z,78.15
2022-10-09T03:32:54.229Z,77.94
2022-10-09T03:35:21.879Z,77.99
2022-10-09T03:37:49.536Z,77.88
2022-10-09T03:40:18.582Z,77.91
2022-10-09T03:42:46.522Z,78.01
2022-10-09T03:45:14.425Z,77.99
2022-10-09T03:47:42.089Z,77.93
2022-10-09T03:50:12.804Z,77.48
2022-10-09T03:52:42.568Z,77.81
2022-10-09T03:55:10.352Z,77.59
2022-10-09T03:57:39.477Z,77.30
2022-10-09T04:00:08.554Z,77.23
2022-10-09T04:02:36.650Z,77.63
2022-10-09T04:05:04.665Z,77.64
2022-10-09T04:07:33.911Z,77.50
2022-10-09T04:10:01.612Z,77.01
2022-10-09T04:12:29.765Z,77.01
2022-10-09T04:14:58.822Z,76.95
2022-10-09T04:17:26.521Z,76.72
2022-10-09T04:19:54.197Z,77.15
2022-10-09T04:22:21.884Z,77.05
2022-10-09T04:24:49.580Z,77.19
2022-10-09T04:27:17.546Z,77.20
2022-10-09T04:29:45.352Z,77.34
2022-10-09T04:32:14.363Z,77.26
2022-10-09T04:34:42.025Z,76.97
2022-10-09T04:37:09.680Z,76.89
2022-10-09T04:39:37.328Z,76.73
2022-10-09T04:42:06.170Z,76.63
2022-10-09T04:44:33.851Z,76.90
2022-10-09T04:47:02.997Z,76.51
2022-10-09T04:49:32.014Z,76.93
2022-10-09T04:51:59.671Z,77.19
2022-10-09T04:54:27.653Z,77.53
2022-10-09T04:56:55.325Z,77.58
2022-10-09T04:59:22.957Z,77.39
2022-10-09T05:01:50.668Z,77.01
2022-10-09T05:04:18.366Z,77.48
2022-10-09T05:06:47.341Z,77.42
2022-10-09T05:09:15.040Z,77.43
2022-10-09T05:11:43.084Z,77.16
2022-10-09T05:14:11.181Z,77.65
2022-10-09T05:17:08.543Z,77.09
2022-10-09T05:19:26.635Z,77.14
2022-10-09T05:21:56.596Z,77.34
2022-10-09T05:24:24.390Z,77.13
2022-10-09T05:26:52.459Z,77.39
2022-10-09T05:29:20.188Z,77.48
2022-10-09T05:31:49.662Z,77.53
2022-10-09T05:34:17.669Z,77.46
2022-10-09T05:36:45.324Z,77.39
2022-10-09T05:39:14.517Z,77.60
2022-10-09T05:41:42.197Z,77.61
2022-10-09T05:44:09.880Z,77.47
2022-10-09T05:46:37.572Z,77.60
2022-10-09T05:49:06.598Z,77.67
2022-10-09T05:51:36.080Z,77.47
2022-10-09T05:54:04.364Z,77.46
2022-10-09T05:56:34.825Z,77.32
2022-10-09T05:59:04.557Z,77.15
2022-10-09T06:01:34.303Z,77.56
2022-10-09T06:04:04.109Z,77.71
2022-10-09T06:06:33.846Z,77.80
2022-10-09T06:09:01.715Z,77.54
2022-10-09T06:11:33.126Z,77.24
2022-10-09T06:14:02.046Z,77.01
2022-10-09T06:16:32.126Z,76.97
2022-10-09T06:19:00.503Z,77.10
2022-10-09T06:21:30.093Z,76.67
2022-10-09T06:23:59.701Z,77.31
2022-10-09T06:26:29.284Z,77.76
2022-10-09T06:28:59.105Z,78.08
2022-10-09T06:31:28.650Z,77.54
2022-10-09T06:33:56.886Z,78.10
2022-10-09T06:36:26.054Z,78.88
2022-10-09T06:38:54.501Z,78.86
2022-10-09T06:41:24.194Z,78.37
2022-10-09T06:43:54.103Z,79.54
2022-10-09T06:46:24.480Z,79.66
2022-10-09T06:48:52.289Z,80.73
2022-10-09T06:51:23.420Z,78.91
2022-10-09T06:53:52.608Z,79.43
2022-10-09T06:56:21.532Z,79.41
2022-10-09T06:58:49.694Z,79.40
2022-10-09T07:01:19.509Z,79.29
2022-10-09T07:03:53.109Z,79.18
2022-10-09T07:06:22.162Z,79.18
2022-10-09T07:08:51.920Z,79.33
2022-10-09T07:11:21.361Z,80.54
2022-10-09T07:13:50.091Z,80.28
2022-10-09T07:16:20.738Z,81.24
2022-10-09T07:18:50.327Z,80.09
2022-10-09T07:21:18.148Z,81.01
2022-10-09T07:23:45.864Z,81.68
2022-10-09T07:26:15.948Z,83.78
2022-10-09T07:28:44.601Z,84.06
2022-10-09T07:31:13.167Z,85.71
2022-10-09T07:33:41.541Z,85.50
2022-10-09T07:36:11.490Z,86.94
2022-10-09T07:38:39.141Z,88.17
2022-10-09T07:41:08.282Z,87.82
2022-10-09T07:43:36.857Z,88.94
2022-10-09T07:46:05.930Z,89.85
2022-10-09T07:48:34.885Z,88.19
2022-10-09T07:51:10.473Z,88.86
2022-10-09T07:53:38.565Z,89.56
2022-10-09T07:56:07.180Z,89.28
2022-10-09T07:58:34.977Z,90.13
2022-10-09T08:01:05.523Z,90.18
2022-10-09T08:03:33.265Z,91.19
2022-10-09T08:06:00.963Z,90.79
2022-10-09T08:08:32.042Z,91.08
2022-10-09T08:10:59.796Z,92.19
2022-10-09T08:13:27.776Z,91.93
2022-10-09T08:15:58.687Z,92.85
2022-10-09T08:18:26.369Z,92.64
2022-10-09T08:20:59.542Z,92.34
2022-10-09T08:23:27.316Z,91.57
2022-10-09T08:25:56.509Z,92.50
2022-10-09T08:28:24.411Z,92.94
2022-10-09T08:30:52.409Z,92.25
2022-10-09T08:33:21.997Z,93.30
2022-10-09T08:35:49.915Z,92.64
2022-10-09T08:38:44.957Z,91.85
2022-10-09T08:41:09.793Z,92.20
2022-10-09T08:43:41.301Z,92.72
2022-10-09T08:46:20.714Z,92.92
2022-10-09T08:48:49.578Z,92.50
2022-10-09T08:51:22.471Z,93.30
2022-10-09T08:53:54.701Z,90.60
2022-10-09T08:56:24.160Z,91.66
2022-10-09T08:58:51.843Z,92.59
2022-10-09T09:01:25.498Z,92.45
2022-10-09T09:04:00.583Z,92.89
2022-10-09T09:06:36.390Z,91.75
2022-10-09T09:09:10.994Z,93.51
2022-10-09T09:11:44.364Z,92.27
2022-10-09T09:14:21.481Z,91.10
2022-10-09T09:16:54.964Z,92.74
2022-10-09T09:19:41.941Z,90.39
2022-10-09T09:22:11.537Z,91.33
2022-10-09T09:24:41.826Z,91.18
2022-10-09T09:27:15.070Z,92.57
2022-10-09T09:29:46.157Z,90.25
2022-10-09T09:32:19.010Z,91.13
2022-10-09T09:34:46.984Z,90.83
2022-10-09T09:37:15.097Z,91.05
2022-10-09T09:40:31.235Z,90.96
2022-10-09T09:42:32.940Z,90.08
2022-10-09T09:45:03.995Z,91.63
2022-10-09T09:47:34.840Z,89.90
2022-10-09T09:50:04.260Z,89.91
2022-10-09T09:52:36.393Z,89.26
2022-10-09T09:55:05.431Z,88.78
2022-10-09T09:57:36.952Z,89.73
2022-10-09T10:00:21.930Z,90.59
2022-10-09T10:02:49.993Z,88.79
2022-10-09T10:05:27.235Z,89.85
2022-10-09T10:07:57.439Z,89.17
2022-10-09T10:10:27.091Z,88.58
2022-10-09T10:12:58.143Z,88.39
2022-10-09T10:15:27.574Z,87.80
2022-10-09T10:18:03.756Z,87.15
2022-10-09T10:20:32.820Z,87.03
2022-10-09T10:23:02.945Z,86.80
2022-10-09T10:25:32.716Z,86.93
2022-10-09T10:28:04.989Z,86.45
2022-10-09T10:30:33.061Z,85.59
2022-10-09T10:33:04.592Z,84.47
2022-10-09T10:35:34.858Z,83.21
2022-10-09T10:38:06.540Z,82.66
2022-10-09T10:40:37.500Z,80.94
2022-10-09T10:43:16.730Z,83.47
2022-10-09T10:45:59.244Z,80.83
2022-10-09T10:48:28.950Z,80.48
2022-10-09T10:51:04.561Z,82.33
2022-10-09T10:53:42.579Z,82.29
2022-10-09T10:56:15.968Z,80.94
2022-10-09T10:58:50.666Z,81.03
2022-10-09T11:01:29.516Z,80.16
2022-10-09T11:04:12.773Z,80.64
2022-10-09T11:06:47.030Z,81.80
2022-10-09T11:09:19.368Z,80.18
2022-10-09T11:11:50.058Z,80.53
2022-10-09T11:14:29.835Z,81.30
2022-10-09T11:17:02.189Z,79.76
2022-10-09T11:19:54.177Z,80.86
2022-10-09T11:22:31.945Z,78.72
2022-10-09T11:25:09.389Z,79.23
2022-10-09T11:27:41.168Z,79.53
2022-10-09T11:30:12.916Z,80.59
2022-10-09T11:32:47.673Z,78.79
2022-10-09T11:35:19.998Z,77.24
2022-10-09T11:37:55.028Z,76.64
2022-10-09T11:40:25.090Z,78.12
2022-10-09T11:42:57.666Z,77.90
2022-10-09T11:45:31.081Z,78.31
2022-10-09T11:48:03.974Z,76.18
2022-10-09T11:50:40.583Z,76.84
2022-10-09T11:53:11.499Z,77.38
2022-10-09T11:55:39.354Z,77.94
2022-10-09T11:58:14.889Z,76.77
2022-10-09T12:00:43.998Z,76.31
2022-10-09T12:03:25.005Z,76.79
2022-10-09T12:05:52.760Z,76.51
2022-10-09T12:08:27.624Z,76.43
2022-10-09T12:10:56.629Z,77.05
2022-10-09T12:13:42.914Z,75.53
2022-10-09T12:16:30.797Z,75.63
2022-10-09T12:19:00.251Z,77.38
2022-10-09T12:21:33.716Z,75.41
2022-10-09T12:24:03.010Z,74.63
2022-10-09T12:26:31.106Z,75.28
2022-10-09T12:29:01.840Z,75.70
2022-10-09T12:31:33.939Z,75.53
2022-10-09T12:34:04.416Z,75.54
2022-10-09T12:36:33.507Z,76.15
2022-10-09T12:39:13.629Z,76.25
2022-10-09T12:41:43.917Z,76.61
2022-10-09T12:44:26.102Z,75.61
2022-10-09T12:46:55.149Z,74.21
2022-10-09T12:49:25.447Z,73.68
2022-10-09T12:51:56.269Z,75.28
2022-10-09T12:54:25.849Z,74.91
2022-10-09T12:56:54.432Z,75.62
2022-10-09T12:59:22.833Z,75.80
2022-10-09T13:01:51.337Z,76.07
2022-10-09T13:04:26.905Z,75.56
2022-10-09T13:06:55.209Z,76.41
2022-10-09T13:09:24.889Z,75.76
2022-10-09T13:11:55.520Z,75.63
2022-10-09T13:14:27.237Z,75.76
2022-10-09T13:16:55.146Z,75.19
2022-10-09T13:19:27.110Z,75.47
2022-10-09T13:22:18.208Z,75.00
2022-10-09T13:24:45.916Z,75.65
2022-10-09T13:27:14.902Z,75.42
2022-10-09T13:29:43.441Z,75.46
2022-10-09T13:32:13.671Z,75.21
2022-10-09T13:34:42.833Z,74.37
2022-10-09T13:37:12.548Z,74.77
2022-10-09T13:39:40.245Z,75.85
2022-10-09T13:42:08.142Z,74.72
2022-10-09T13:44:35.807Z,74.22
2022-10-09T13:47:04.083Z,73.27
2022-10-09T13:49:31.751Z,73.40
2022-10-09T13:52:00.813Z,71.98
2022-10-09T13:54:28.667Z,71.44
2022-10-09T13:56:56.367Z,72.83
2022-10-09T13:59:25.000Z,72.88
2022-10-09T14:01:52.816Z,73.16
2022-10-09T14:04:20.557Z,72.85
2022-10-09T14:06:48.355Z,72.43
2022-10-09T14:09:17.393Z,71.42
2022-10-09T14:11:45.066Z,72.53
2022-10-09T14:14:12.884Z,72.84
2022-10-09T14:16:40.621Z,71.97
2022-10-09T14:19:08.350Z,71.78
2022-10-09T14:21:36.046Z,72.03
2022-10-09T14:24:04.612Z,71.35
2022-10-09T14:26:34.046Z,71.63
2022-10-09T14:29:03.114Z,71.72
2022-10-09T14:31:30.895Z,71.89
2022-10-09T14:33:59.871Z,71.46
2022-10-09T14:36:27.673Z,71.80
2022-10-09T14:38:56.010Z,71.42
2022-10-09T14:41:23.827Z,71.16
2022-10-09T14:43:56.680Z,71.32
2022-10-09T14:46:25.123Z,72.03
2022-10-09T14:48:55.108Z,71.99
2022-10-09T14:51:24.448Z,72.50
2022-10-09T14:53:52.200Z,71.90
2022-10-09T14:56:21.350Z,71.67
2022-10-09T14:58:49.068Z,72.62
2022-10-09T15:01:19.564Z,72.29
2022-10-09T15:03:48.087Z,72.73
2022-10-09T15:06:17.143Z,72.31
2022-10-09T15:08:45.173Z,72.46
2022-10-09T15:11:13.633Z,72.14
2022-10-09T15:13:41.334Z,71.99
2022-10-09T15:16:11.648Z,72.15
2022-10-09T15:18:41.157Z,71.99
2022-10-09T15:21:13.189Z,71.66
2022-10-09T15:23:41.074Z,71.86
2022-10-09T15:26:09.238Z,72.78
2022-10-09T15:28:37.588Z,72.30
2022-10-09T15:31:07.269Z,72.29
2022-10-09T15:33:34.871Z,72.36
2022-10-09T15:36:04.834Z,72.19
2022-10-09T15:38:32.561Z,72.10
2022-10-09T15:41:00.203Z,72.68
2022-10-09T15:43:29.027Z,73.17
2022-10-09T15:46:03.403Z,73.56
2022-10-09T15:48:31.124Z,73.44
2022-10-09T15:50:58.780Z,73.99
2022-10-09T15:53:27.801Z,74.33
2022-10-09T15:55:55.744Z,74.45
2022-10-09T15:58:23.564Z,74.77
2022-10-09T16:00:51.234Z,74.93
2022-10-09T16:03:19.693Z,74.96
2022-10-09T16:05:50.859Z,75.11
2022-10-09T16:08:19.790Z,75.27
2022-10-09T16:10:51.787Z,75.06
2022-10-09T16:13:19.891Z,75.26
2022-10-09T16:15:48.458Z,75.25
2022-10-09T16:18:17.261Z,75.50
2022-10-09T16:20:45.098Z,75.85
2022-10-09T16:23:13.441Z,75.71
2022-10-09T16:25:41.761Z,75.70
2022-10-09T16:28:12.883Z,75.71
2022-10-09T16:30:43.121Z,75.56
2022-10-09T16:33:12.917Z,75.54
2022-10-09T16:35:40.905Z,75.62
2022-10-09T16:38:09.080Z,75.33
2022-10-09T16:41:00.951Z,75.25
2022-10-09T16:43:25.751Z,74.86
2022-10-09T16:45:53.440Z,75.14
2022-10-09T16:48:21.098Z,75.19
2022-10-09T16:50:49.269Z,75.10
2022-10-09T16:53:17.022Z,75.28
2022-10-09T16:55:44.724Z,75.49
2022-10-09T16:58:12.385Z,75.20
2022-10-09T17:00:42.634Z,75.27
2022-10-09T17:03:10.517Z,74.89
2022-10-09T17:05:39.172Z,75.26
2022-10-09T17:08:06.927Z,74.75
2022-10-09T17:10:36.563Z,75.11
2022-10-09T17:13:06.548Z,75.02
2022-10-09T17:15:34.208Z,74.96
2022-10-09T17:18:03.201Z,74.76
2022-10-09T17:20:30.850Z,74.97
2022-10-09T17:23:00.162Z,75.08
2022-10-09T17:25:32.098Z,75.13
2022-10-09T17:28:01.440Z,74.91
2022-10-09T17:30:32.095Z,74.53
2022-10-09T17:32:59.769Z,74.74
2022-10-09T17:35:28.813Z,74.71
2022-10-09T17:37:57.372Z,74.64
2022-10-09T17:40:25.285Z,74.57
2022-10-09T17:42:53.020Z,74.62
2022-10-09T17:45:20.789Z,74.68
2022-10-09T17:47:49.018Z,74.74
2022-10-09T17:50:16.891Z,74.87
2022-10-09T17:52:45.877Z,74.42
2022-10-09T17:55:13.576Z,74.79
2022-10-09T17:57:41.523Z,74.91
2022-10-09T18:00:11.035Z,74.94
2022-10-09T18:02:38.685Z,74.46
2022-10-09T18:05:08.315Z,74.64
2022-10-09T18:07:36.165Z,74.84
2022-10-09T18:10:05.766Z,74.76
2022-10-09T18:12:33.456Z,74.56
2022-10-09T18:15:02.944Z,74.75
2022-10-09T18:17:33.113Z,74.96
2022-10-09T18:20:00.922Z,74.72
2022-10-09T18:22:28.565Z,75.02
2022-10-09T18:24:56.205Z,74.77
2022-10-09T18:27:25.691Z,74.79
2022-10-09T18:29:53.443Z,74.83
2022-10-09T18:32:21.136Z,74.63
2022-10-09T18:34:49.042Z,74.58
2022-10-09T18:37:19.539Z,75.02
2022-10-09T18:39:48.471Z,75.09
2022-10-09T18:42:16.170Z,75.26
2022-10-09T18:44:45.201Z,74.93
2022-10-09T18:47:16.775Z,75.04
2022-10-09T18:49:46.766Z,75.51
2022-10-09T18:52:15.239Z,75.99
2022-10-09T18:54:44.597Z,76.46
2022-10-09T18:57:12.973Z,76.81
2022-10-09T18:59:40.984Z,76.94
2022-10-09T19:02:10.004Z,77.17
2022-10-09T19:04:37.658Z,77.26
2022-10-09T19:07:05.339Z,77.12
2022-10-09T19:09:33.030Z,76.93
2022-10-09T19:12:00.755Z,76.78
2022-10-09T19:14:28.585Z,76.96
2022-10-09T19:16:56.536Z,76.59
2022-10-09T19:19:25.535Z,76.84
2022-10-09T19:21:54.269Z,76.58
2022-10-09T19:24:21.905Z,76.06
2022-10-09T19:26:49.598Z,76.83
2022-10-09T19:29:17.252Z,76.67
2022-10-09T19:31:44.925Z,76.74
2022-10-09T19:34:12.651Z,76.86
2022-10-09T19:36:43.028Z,77.23
2022-10-09T19:39:11.081Z,77.01
2022-10-09T19:41:41.663Z,77.73
2022-10-09T19:44:09.812Z,77.30
2022-10-09T19:46:38.434Z,77.18
2022-10-09T19:49:06.917Z,76.81
2022-10-09T19:51:36.148Z,76.83
2022-10-09T19:54:08.470Z,76.02
2022-10-09T19:56:36.920Z,76.04
2022-10-09T19:59:10.994Z,75.62
2022-10-09T20:01:40.161Z,75.56
2022-10-09T20:04:10.673Z,75.92
2022-10-09T20:06:39.585Z,75.70
2022-10-09T20:09:09.779Z,75.74
2022-10-09T20:11:37.822Z,75.67
2022-10-09T20:14:05.767Z,75.61
2022-10-09T20:16:34.881Z,75.31
2022-10-09T20:19:30.712Z,75.28
2022-10-09T20:21:58.653Z,75.48
2022-10-09T20:24:27.647Z,75.44
2022-10-09T20:26:55.311Z,75.26
2022-10-09T20:29:22.984Z,75.84
2022-10-09T20:31:50.688Z,75.49
2022-10-09T20:34:18.354Z,75.39
2022-10-09T20:36:46.008Z,75.51
2022-10-09T20:39:15.274Z,75.66
2022-10-09T20:41:44.501Z,75.96
2022-10-09T20:44:13.040Z,76.29
2022-10-09T20:46:41.770Z,76.24
2022-10-09T20:49:12.583Z,76.14
2022-10-09T20:51:40.608Z,75.95
2022-10-09T20:54:09.850Z,75.88
2022-10-09T20:56:37.648Z,75.81
2022-10-09T20:59:06.623Z,75.93
2022-10-09T21:01:34.505Z,75.87
2022-10-09T21:04:04.644Z,75.54
2022-10-09T21:06:33.872Z,75.36
2022-10-09T21:09:01.540Z,75.54
2022-10-09T21:11:34.589Z,75.09
2022-10-09T21:14:05.030Z,75.43
2022-10-09T21:16:34.075Z,75.92
2022-10-09T21:19:05.013Z,76.23
2022-10-09T21:21:33.281Z,76.48
2022-10-09T21:24:01.504Z,76.16
2022-10-09T21:26:35.495Z,76.28
2022-10-09T21:29:04.180Z,76.12
2022-10-09T21:31:34.032Z,76.73
2022-10-09T21:34:05.038Z,76.56
2022-10-09T21:36:55.803Z,76.26
2022-10-09T21:39:27.450Z,76.32
2022-10-09T21:41:55.369Z,76.78
2022-10-09T21:44:23.039Z,76.57
2022-10-09T21:46:52.044Z,76.83
2022-10-09T21:49:22.090Z,77.34
2022-10-09T21:51:50.097Z,77.37
2022-10-09T21:54:17.919Z,77.31
2022-10-09T21:56:45.624Z,77.25
2022-10-09T21:59:13.284Z,77.48
2022-10-09T22:01:41.038Z,77.49
2022-10-09T22:04:10.148Z,78.14
2022-10-09T22:06:37.853Z,77.51
2022-10-09T22:09:05.517Z,78.10
2022-10-09T22:11:33.176Z,77.76
2022-10-09T22:14:00.890Z,77.78
2022-10-09T22:16:28.523Z,78.23
2022-10-09T22:18:56.213Z,78.12
2022-10-09T22:21:25.253Z,77.67
2022-10-09T22:23:52.896Z,77.64
2022-10-09T22:26:22.185Z,78.00
2022-10-09T22:28:50.526Z,78.41
2022-10-09T22:31:19.873Z,78.62
2022-10-09T22:33:50.949Z,79.20
2022-10-09T22:36:19.742Z,79.12
2022-10-09T22:38:48.931Z,78.77
2022-10-09T22:41:18.377Z,78.49
2022-10-09T22:43:48.421Z,78.45
2022-10-09T22:46:18.469Z,78.15
2022-10-09T22:48:46.351Z,77.97
2022-10-09T22:51:15.817Z,77.97
2022-10-09T22:53:43.796Z,77.53
2022-10-09T22:56:15.348Z,77.86
2022-10-09T22:58:42.993Z,77.53
2022-10-09T23:01:12.900Z,77.08
2022-10-09T23:03:40.690Z,76.51
2022-10-09T23:06:09.995Z,76.18
2022-10-09T23:08:38.273Z,76.36
2022-10-09T23:11:06.177Z,76.18
2022-10-09T23:13:35.311Z,75.97
2022-10-09T23:16:03.597Z,75.97
2022-10-09T23:18:31.729Z,75.90
2022-10-09T23:20:59.549Z,76.10
2022-10-09T23:23:28.966Z,75.74
2022-10-09T23:25:56.700Z,75.93
2022-10-09T23:28:26.398Z,75.71
2022-10-09T23:31:01.564Z,75.93
2022-10-09T23:33:29.259Z,75.92
2022-10-09T23:35:57.056Z,76.23
2022-10-09T23:38:24.924Z,75.90
2022-10-09T23:40:56.477Z,75.92
2022-10-09T23:43:24.138Z,76.19
2022-10-09T23:45:51.969Z,76.10
2022-10-09T23:48:20.973Z,75.94
2022-10-09T23:50:48.807Z,76.18
2022-10-09T23:53:17.056Z,76.35
2022-10-09T23:55:44.922Z,76.45
2022-10-09T23:58:17.168Z,76.72
